createdAt,value
2022-07-28T00:00:55.138Z,2.22
2022-07-28T00:03:00.985Z,1.85
2022-07-28T00:05:05.413Z,2.05
2022-07-28T00:07:09.679Z,2.10
2022-07-28T00:09:14.312Z,2.10
2022-07-28T00:11:18.324Z,1.60
2022-07-28T00:13:22.927Z,2.22
2022-07-28T00:15:27.430Z,1.90
2022-07-28T00:17:32.009Z,1.85
2022-07-28T00:19:38.316Z,1.73
2022-07-28T00:21:42.544Z,1.77
2022-07-28T00:23:47.018Z,1.60
2022-07-28T00:25:51.131Z,1.83
2022-07-28T00:27:55.441Z,2.03
2022-07-28T00:29:59.549Z,1.80
2022-07-28T00:32:03.796Z,1.80
2022-07-28T00:34:09.033Z,1.83
2022-07-28T00:36:15.042Z,1.90
2022-07-28T00:38:19.496Z,1.77
2022-07-28T00:40:47.793Z,2.28
2022-07-28T00:42:51.649Z,2.05
2022-07-28T00:44:56.757Z,2.05
2022-07-28T00:47:01.103Z,2.20
2022-07-28T00:49:05.534Z,1.95
2022-07-28T00:51:10.464Z,2.10
2022-07-28T00:53:16.010Z,2.10
2022-07-28T00:55:20.258Z,2.60
2022-07-28T00:57:23.719Z,2.17
2022-07-28T00:59:27.874Z,2.05
2022-07-28T01:01:31.543Z,2.15
2022-07-28T01:03:37.628Z,2.33
2022-07-28T01:05:49.566Z,2.40
2022-07-28T01:08:02.668Z,2.00
2022-07-28T01:10:12.527Z,2.10
2022-07-28T01:12:25.294Z,2.10
2022-07-28T01:14:36.424Z,2.00
2022-07-28T01:16:46.631Z,1.85
2022-07-28T01:18:54.958Z,2.20
2022-07-28T01:21:03.624Z,2.00
2022-07-28T01:23:30.805Z,2.30
2022-07-28T01:25:48.579Z,2.05
2022-07-28T01:28:05.018Z,2.00
2022-07-28T01:30:13.560Z,1.83
2022-07-28T01:32:22.219Z,2.10
2022-07-28T01:34:32.166Z,2.33
2022-07-28T01:36:41.170Z,1.83
2022-07-28T01:38:47.557Z,2.20
2022-07-28T01:40:53.995Z,1.90
2022-07-28T01:43:01.361Z,1.90
2022-07-28T01:45:08.270Z,2.05
2022-07-28T01:47:12.505Z,2.05
2022-07-28T01:49:19.530Z,1.88
2022-07-28T01:51:26.548Z,2.00
2022-07-28T01:53:37.810Z,2.10
2022-07-28T01:55:44.835Z,2.13
2022-07-28T01:57:50.718Z,2.28
2022-07-28T01:59:56.326Z,1.95
2022-07-28T02:02:01.491Z,1.73
2022-07-28T02:04:06.859Z,1.90
2022-07-28T02:06:13.634Z,1.80
2022-07-28T02:08:20.333Z,2.15
2022-07-28T02:10:26.796Z,2.00
2022-07-28T02:12:29.879Z,1.70
2022-07-28T02:14:36.469Z,1.80
2022-07-28T02:16:43.027Z,2.05
2022-07-28T02:18:48.367Z,2.00
2022-07-28T02:20:53.540Z,1.98
2022-07-28T02:22:59.648Z,1.90
2022-07-28T02:25:03.928Z,2.00
2022-07-28T02:27:13.184Z,2.17
2022-07-28T02:29:48.077Z,2.05
2022-07-28T02:31:51.827Z,1.98
2022-07-28T02:34:02.410Z,1.90
2022-07-28T02:36:11.482Z,1.90
2022-07-28T02:38:24.179Z,2.00
2022-07-28T02:40:32.597Z,1.92
2022-07-28T02:42:38.071Z,1.98
2022-07-28T02:44:45.265Z,1.90
2022-07-28T02:46:52.991Z,2.38
2022-07-28T02:49:07.013Z,2.00
2022-07-28T02:51:13.594Z,1.70
2022-07-28T02:53:18.923Z,2.15
2022-07-28T02:55:26.117Z,2.08
2022-07-28T02:57:32.871Z,1.83
2022-07-28T02:59:37.930Z,2.25
2022-07-28T03:01:45.397Z,1.77
2022-07-28T03:03:51.271Z,2.00
2022-07-28T03:05:59.811Z,1.90
2022-07-28T03:08:04.539Z,1.83
2022-07-28T03:10:09.950Z,1.80
2022-07-28T03:12:16.518Z,2.13
2022-07-28T03:14:21.201Z,2.05
2022-07-28T03:16:25.465Z,1.80
2022-07-28T03:18:29.984Z,2.10
2022-07-28T03:20:35.176Z,1.70
2022-07-28T03:22:39.991Z,1.52
2022-07-28T03:24:48.924Z,1.90
2022-07-28T03:26:59.742Z,1.83
2022-07-28T03:29:06.275Z,1.90
2022-07-28T03:31:14.485Z,1.92
2022-07-28T03:33:20.312Z,1.85
2022-07-28T03:35:26.138Z,1.98
2022-07-28T03:37:35.832Z,1.92
2022-07-28T03:39:47.361Z,1.58
2022-07-28T03:41:54.038Z,2.17
2022-07-28T03:43:58.887Z,1.50
2022-07-28T03:46:07.597Z,1.70
2022-07-28T03:48:15.813Z,1.70
2022-07-28T03:50:20.352Z,1.90
2022-07-28T03:52:24.743Z,1.92
2022-07-28T03:54:30.488Z,1.83
2022-07-28T03:56:34.981Z,1.67
2022-07-28T03:58:39.286Z,1.60
2022-07-28T04:00:43.540Z,1.60
2022-07-28T04:02:49.673Z,1.80
2022-07-28T04:04:53.937Z,1.67
2022-07-28T04:06:58.226Z,1.70
2022-07-28T04:09:02.515Z,1.80
2022-07-28T04:11:07.554Z,1.70
2022-07-28T04:13:12.681Z,1.70
2022-07-28T04:15:17.562Z,2.80
2022-07-28T04:17:21.882Z,1.67
2022-07-28T04:19:27.680Z,1.50
2022-07-28T04:21:32.184Z,1.60
2022-07-28T04:23:36.197Z,1.77
2022-07-28T04:25:40.471Z,1.80
2022-07-28T04:27:45.650Z,1.50
2022-07-28T04:29:49.996Z,1.77
2022-07-28T04:31:54.167Z,1.85
2022-07-28T04:34:00.453Z,1.90
2022-07-28T04:36:06.631Z,1.63
2022-07-28T04:38:14.277Z,1.73
2022-07-28T04:40:20.062Z,2.00
2022-07-28T04:42:24.426Z,1.75
2022-07-28T04:44:28.385Z,1.77
2022-07-28T04:46:32.508Z,1.83
2022-07-28T04:48:36.744Z,1.63
2022-07-28T04:50:42.580Z,1.63
2022-07-28T04:52:49.809Z,1.52
2022-07-28T04:54:54.058Z,1.60
2022-07-28T04:56:58.567Z,1.80
2022-07-28T04:59:05.211Z,1.73
2022-07-28T05:01:10.276Z,1.40
2022-07-28T05:03:14.757Z,1.98
2022-07-28T05:05:21.247Z,1.70
2022-07-28T05:07:25.767Z,1.65
2022-07-28T05:09:32.046Z,1.80
2022-07-28T05:11:36.701Z,1.90
2022-07-28T05:13:41.494Z,1.80
2022-07-28T05:15:46.429Z,2.78
2022-07-28T05:17:50.714Z,1.67
2022-07-28T05:19:55.464Z,1.70
2022-07-28T05:21:59.466Z,1.70
2022-07-28T05:24:03.936Z,1.85
2022-07-28T05:26:09.354Z,2.17
2022-07-28T05:28:14.086Z,1.90
2022-07-28T05:30:19.326Z,2.05
2022-07-28T05:32:23.857Z,2.03
2022-07-28T05:34:28.263Z,1.65
2022-07-28T05:36:32.482Z,2.00
2022-07-28T05:38:36.768Z,1.58
2022-07-28T05:40:41.504Z,1.60
2022-07-28T05:42:48.174Z,1.80
2022-07-28T05:44:52.291Z,1.73
2022-07-28T05:46:56.346Z,1.77
2022-07-28T05:49:00.668Z,1.70
2022-07-28T05:51:05.728Z,1.60
2022-07-28T05:53:09.868Z,2.20
2022-07-28T05:55:14.320Z,1.42
2022-07-28T05:57:18.732Z,1.83
2022-07-28T05:59:24.447Z,1.95
2022-07-28T06:01:28.490Z,2.38
2022-07-28T06:03:41.542Z,2.22
2022-07-28T06:06:14.392Z,1.95
2022-07-28T06:08:10.772Z,2.17
2022-07-28T06:10:16.686Z,1.88
2022-07-28T06:12:21.381Z,1.90
2022-07-28T06:14:27.089Z,1.67
2022-07-28T06:16:31.503Z,3.00
2022-07-28T06:18:35.920Z,2.40
2022-07-28T06:20:40.050Z,1.85
2022-07-28T06:22:45.770Z,2.00
2022-07-28T06:24:50.120Z,2.00
2022-07-28T06:26:54.199Z,2.20
2022-07-28T06:28:57.802Z,1.70
2022-07-28T06:31:02.863Z,1.58
2022-07-28T06:33:08.198Z,1.63
2022-07-28T06:35:14.945Z,1.60
2022-07-28T06:37:19.039Z,1.25
2022-07-28T06:39:22.844Z,2.58
2022-07-28T06:41:26.674Z,1.50
2022-07-28T06:43:30.686Z,2.13
2022-07-28T06:45:34.726Z,1.40
2022-07-28T06:47:45.824Z,1.48
2022-07-28T06:49:51.695Z,1.30
2022-07-28T06:51:55.334Z,1.33
2022-07-28T06:53:59.713Z,1.10
2022-07-28T06:56:05.419Z,1.25
2022-07-28T06:58:10.171Z,1.30
2022-07-28T07:00:14.702Z,1.08
2022-07-28T07:02:19.206Z,1.40
2022-07-28T07:04:24.390Z,1.40
2022-07-28T07:06:28.065Z,1.30
2022-07-28T07:08:31.832Z,1.33
2022-07-28T07:10:36.378Z,1.23
2022-07-28T07:12:40.512Z,1.60
2022-07-28T07:14:44.066Z,1.38
2022-07-28T07:16:47.865Z,1.20
2022-07-28T07:18:53.238Z,1.00
2022-07-28T07:20:59.743Z,1.20
2022-07-28T07:23:03.438Z,1.30
2022-07-28T07:25:10.787Z,1.42
2022-07-28T07:27:14.517Z,1.05
2022-07-28T07:29:18.286Z,1.15
2022-07-28T07:31:22.867Z,0.93
2022-07-28T07:33:26.566Z,1.42
2022-07-28T07:35:30.451Z,1.40
2022-07-28T07:37:35.688Z,1.27
2022-07-28T07:39:39.426Z,1.25
2022-07-28T07:41:43.541Z,1.33
2022-07-28T07:43:48.352Z,1.40
2022-07-28T07:45:52.097Z,0.95
2022-07-28T07:47:55.714Z,1.80
2022-07-28T07:50:01.850Z,1.55
2022-07-28T07:52:07.870Z,1.70
2022-07-28T07:54:13.223Z,1.30
2022-07-28T07:56:18.577Z,1.33
2022-07-28T07:58:22.842Z,1.80
2022-07-28T08:00:29.282Z,1.42
2022-07-28T08:02:33.183Z,1.65
2022-07-28T08:04:37.072Z,2.10
2022-07-28T08:06:41.389Z,1.70
2022-07-28T08:08:48.495Z,1.67
2022-07-28T08:10:54.632Z,1.60
2022-07-28T08:12:58.526Z,1.60
2022-07-28T08:15:02.302Z,1.55
2022-07-28T08:17:06.402Z,1.65
2022-07-28T08:19:10.408Z,2.08
2022-07-28T08:21:16.469Z,1.33
2022-07-28T08:23:26.051Z,1.58
2022-07-28T08:25:30.213Z,1.88
2022-07-28T08:27:36.975Z,1.83
2022-07-28T08:29:40.559Z,1.80
2022-07-28T08:31:44.465Z,1.55
2022-07-28T08:33:54.306Z,1.50
2022-07-28T08:35:58.544Z,1.77
2022-07-28T08:38:02.359Z,1.80
2022-07-28T08:40:09.314Z,1.70
2022-07-28T08:42:17.119Z,2.00
2022-07-28T08:44:26.895Z,1.90
2022-07-28T08:46:36.042Z,1.70
2022-07-28T08:48:40.450Z,1.83
2022-07-28T08:50:46.011Z,2.10
2022-07-28T08:52:52.701Z,1.88
2022-07-28T08:54:59.196Z,2.13
2022-07-28T08:57:04.436Z,1.92
2022-07-28T08:59:09.107Z,2.25
2022-07-28T09:01:14.409Z,1.80
2022-07-28T09:03:19.434Z,2.03
2022-07-28T09:05:24.338Z,2.20
2022-07-28T09:07:29.470Z,1.75
2022-07-28T09:09:34.221Z,2.50
2022-07-28T09:11:38.474Z,1.80
2022-07-28T09:13:42.345Z,2.33
2022-07-28T09:15:47.553Z,2.25
2022-07-28T09:17:53.404Z,2.22
2022-07-28T09:19:57.430Z,2.33
2022-07-28T09:22:02.064Z,2.00
2022-07-28T09:24:06.818Z,2.00
2022-07-28T09:26:12.530Z,2.13
2022-07-28T09:28:20.137Z,2.17
2022-07-28T09:30:32.005Z,3.47
2022-07-28T09:32:36.266Z,2.10
2022-07-28T09:34:46.540Z,2.10
2022-07-28T09:36:51.098Z,2.08
2022-07-28T09:38:56.944Z,2.50
2022-07-28T09:41:03.088Z,2.08
2022-07-28T09:43:07.046Z,2.22
2022-07-28T09:45:27.262Z,1.90
2022-07-28T09:47:33.389Z,1.92
2022-07-28T09:49:45.045Z,2.03
2022-07-28T09:52:02.711Z,2.03
2022-07-28T09:54:13.213Z,2.08
2022-07-28T09:56:18.861Z,2.35
2022-07-28T09:58:23.046Z,2.28
2022-07-28T10:00:31.897Z,2.05
2022-07-28T10:02:37.118Z,2.15
2022-07-28T10:04:42.348Z,2.10
2022-07-28T10:06:47.718Z,2.30
2022-07-28T10:08:52.885Z,2.03
2022-07-28T10:11:03.874Z,2.10
2022-07-28T10:13:07.828Z,2.42
2022-07-28T10:15:31.479Z,2.30
2022-07-28T10:17:36.305Z,2.45
2022-07-28T10:19:40.931Z,2.55
2022-07-28T10:21:46.779Z,2.53
2022-07-28T10:23:52.396Z,2.00
2022-07-28T10:25:58.208Z,2.60
2022-07-28T10:28:03.421Z,2.90
2022-07-28T10:30:09.261Z,2.40
2022-07-28T10:32:13.242Z,2.30
2022-07-28T10:34:25.013Z,2.90
2022-07-28T10:36:29.839Z,3.10
2022-07-28T10:38:37.912Z,3.25
2022-07-28T10:40:44.290Z,2.50
2022-07-28T10:42:48.263Z,3.90
2022-07-28T10:44:54.528Z,2.85
2022-07-28T10:46:59.483Z,3.10
2022-07-28T10:49:05.414Z,3.03
2022-07-28T10:51:14.170Z,3.08
2022-07-28T10:53:28.282Z,3.20
2022-07-28T10:55:46.459Z,2.75
2022-07-28T10:58:11.417Z,2.95
2022-07-28T11:00:26.420Z,3.08
2022-07-28T11:02:48.955Z,3.42
2022-07-28T11:04:55.673Z,2.67
2022-07-28T11:07:12.249Z,2.20
2022-07-28T11:09:24.622Z,2.47
2022-07-28T11:11:51.282Z,2.13
2022-07-28T11:13:55.949Z,2.05
2022-07-28T11:16:19.113Z,2.00
2022-07-28T11:18:24.134Z,2.35
2022-07-28T11:21:00.836Z,2.65
2022-07-28T11:23:38.140Z,2.40
2022-07-28T11:25:42.339Z,2.13
2022-07-28T11:28:04.812Z,2.25
2022-07-28T11:30:08.730Z,2.47
2022-07-28T11:32:12.684Z,2.55
2022-07-28T11:34:18.840Z,2.30
2022-07-28T11:36:23.411Z,2.60
2022-07-28T11:38:27.869Z,2.50
2022-07-28T11:40:33.416Z,2.75
2022-07-28T11:42:37.525Z,2.70
2022-07-28T11:44:43.028Z,2.50
2022-07-28T11:46:46.986Z,2.65
2022-07-28T11:49:19.037Z,2.55
2022-07-28T11:51:23.681Z,2.40
2022-07-28T11:53:34.258Z,2.50
2022-07-28T11:55:55.322Z,2.40
2022-07-28T11:58:03.730Z,2.40
2022-07-28T12:00:10.670Z,3.15
2022-07-28T12:02:19.178Z,2.83
2022-07-28T12:04:28.034Z,2.72
2022-07-28T12:06:37.662Z,2.70
2022-07-28T12:08:57.020Z,2.80
2022-07-28T12:11:00.967Z,3.00
2022-07-28T12:13:07.551Z,2.88
2022-07-28T12:15:16.592Z,2.90
2022-07-28T12:17:20.314Z,3.17
2022-07-28T12:19:32.859Z,2.83
2022-07-28T12:21:46.415Z,2.90
2022-07-28T12:23:55.620Z,3.30
2022-07-28T12:26:01.851Z,2.60
2022-07-28T12:28:18.881Z,2.90
2022-07-28T12:30:26.754Z,2.42
2022-07-28T12:32:35.636Z,2.97
2022-07-28T12:34:43.819Z,3.08
2022-07-28T12:36:48.341Z,3.10
2022-07-28T12:38:52.895Z,2.40
2022-07-28T12:40:56.874Z,2.78
2022-07-28T12:43:00.470Z,2.40
2022-07-28T12:45:07.673Z,3.28
2022-07-28T12:47:14.316Z,2.85
2022-07-28T12:49:24.557Z,2.40
2022-07-28T12:51:33.049Z,2.70
2022-07-28T12:53:36.929Z,2.40
2022-07-28T12:55:43.783Z,2.70
2022-07-28T12:57:50.999Z,2.50
2022-07-28T13:00:08.075Z,2.80
2022-07-28T13:02:13.572Z,2.83
2022-07-28T13:04:18.521Z,2.80
2022-07-28T13:06:22.794Z,2.67
2022-07-28T13:08:38.551Z,2.42
2022-07-28T13:10:49.023Z,2.35
2022-07-28T13:13:02.358Z,2.67
2022-07-28T13:15:16.491Z,2.83
2022-07-28T13:17:22.620Z,2.78
2022-07-28T13:19:26.549Z,3.00
2022-07-28T13:21:58.406Z,2.83
2022-07-28T13:24:03.494Z,2.15
2022-07-28T13:26:08.878Z,2.63
2022-07-28T13:28:28.937Z,2.25
2022-07-28T13:30:32.608Z,2.63
2022-07-28T13:32:38.165Z,2.17
2022-07-28T13:34:47.165Z,2.42
2022-07-28T13:36:50.889Z,2.40
2022-07-28T13:38:54.601Z,2.53
2022-07-28T13:40:58.484Z,2.45
2022-07-28T13:43:02.173Z,2.55
2022-07-28T13:45:30.279Z,2.40
2022-07-28T13:47:38.873Z,2.55
2022-07-28T13:49:44.873Z,1.95
2022-07-28T13:51:51.049Z,2.63
2022-07-28T13:53:55.664Z,2.17
2022-07-28T13:56:00.300Z,2.38
2022-07-28T13:58:08.455Z,2.58
2022-07-28T14:00:13.836Z,2.28
2022-07-28T14:02:17.526Z,2.47
2022-07-28T14:04:22.001Z,2.17
2022-07-28T14:06:28.065Z,2.67
2022-07-28T14:08:31.909Z,2.42
2022-07-28T14:10:36.020Z,2.17
2022-07-28T14:12:40.370Z,2.90
2022-07-28T14:14:48.532Z,2.30
2022-07-28T14:16:54.369Z,2.30
2022-07-28T14:18:58.876Z,2.60
2022-07-28T14:21:03.539Z,3.10
2022-07-28T14:23:08.742Z,2.70
2022-07-28T14:25:13.509Z,2.65
2022-07-28T14:27:28.944Z,2.80
2022-07-28T14:29:33.108Z,2.40
2022-07-28T14:31:37.097Z,2.80
2022-07-28T14:33:46.355Z,2.20
2022-07-28T14:35:51.146Z,2.20
2022-07-28T14:40:20.137Z,2.20
2022-07-28T14:42:24.334Z,2.60
2022-07-28T14:44:28.403Z,2.50
2022-07-28T14:46:33.369Z,2.58
2022-07-28T14:48:37.120Z,2.58
2022-07-28T14:50:41.060Z,2.90
2022-07-28T14:52:45.301Z,2.50
2022-07-28T14:54:49.433Z,3.03
2022-07-28T14:56:54.645Z,2.95
2022-07-28T14:58:58.134Z,3.20
2022-07-28T15:01:02.142Z,2.78
2022-07-28T15:03:06.145Z,3.10
2022-07-28T15:05:11.351Z,3.00
2022-07-28T15:07:15.147Z,3.63
2022-07-28T15:09:18.888Z,3.10
2022-07-28T15:11:22.453Z,3.22
2022-07-28T15:13:28.637Z,3.30
2022-07-28T15:15:32.212Z,3.40
2022-07-28T15:17:36.131Z,3.17
2022-07-28T15:19:39.974Z,3.10
2022-07-28T15:21:45.870Z,3.20
2022-07-28T15:23:49.493Z,3.55
2022-07-28T15:25:53.911Z,3.38
2022-07-28T15:27:58.039Z,3.47
2022-07-28T15:30:03.506Z,3.72
2022-07-28T15:32:10.710Z,3.47
2022-07-28T15:34:17.106Z,3.83
2022-07-28T15:36:20.904Z,3.30
2022-07-28T15:38:24.631Z,3.83
2022-07-28T15:40:28.167Z,3.38
2022-07-28T15:42:31.725Z,3.47
2022-07-28T15:44:35.357Z,3.60
2022-07-28T15:46:40.605Z,3.40
2022-07-28T15:48:45.378Z,3.40
2022-07-28T15:50:49.342Z,3.42
2022-07-28T15:52:53.066Z,3.50
2022-07-28T15:54:57.059Z,3.42
2022-07-28T15:57:00.604Z,3.40
2022-07-28T15:59:06.615Z,3.20
2022-07-28T16:01:10.174Z,3.60
2022-07-28T16:03:15.795Z,3.25
2022-07-28T16:05:19.601Z,3.03
2022-07-28T16:07:24.666Z,3.33
2022-07-28T16:09:45.338Z,3.00
2022-07-28T16:11:50.615Z,3.67
2022-07-28T16:13:54.342Z,3.35
2022-07-28T16:15:58.144Z,3.55
2022-07-28T16:18:01.918Z,3.47
2022-07-28T16:20:10.430Z,3.13
2022-07-28T16:22:14.118Z,3.25
2022-07-28T16:24:18.254Z,3.08
2022-07-28T16:26:21.977Z,3.03
2022-07-28T16:28:25.640Z,3.30
2022-07-28T16:30:31.036Z,3.38
2022-07-28T16:32:35.147Z,3.80
2022-07-28T16:34:38.989Z,3.38
2022-07-28T16:36:44.215Z,4.10
2022-07-28T16:38:47.977Z,3.60
2022-07-28T16:40:51.898Z,3.85
2022-07-28T16:42:55.475Z,4.20
2022-07-28T16:44:59.626Z,4.30
2022-07-28T16:47:03.334Z,4.03
2022-07-28T16:49:07.085Z,3.95
2022-07-28T16:51:11.752Z,4.50
2022-07-28T16:53:16.926Z,4.68
2022-07-28T16:55:23.584Z,4.00
2022-07-28T16:57:27.711Z,3.78
2022-07-28T16:59:37.696Z,4.15
2022-07-28T17:01:53.341Z,4.60
2022-07-28T17:03:57.082Z,3.55
2022-07-28T17:06:00.689Z,3.90
2022-07-28T17:08:05.171Z,3.65
2022-07-28T17:10:11.850Z,3.55
2022-07-28T17:12:15.403Z,4.20
2022-07-28T17:14:19.259Z,3.67
2022-07-28T17:16:23.483Z,3.70
2022-07-28T17:18:27.710Z,3.97
2022-07-28T17:20:32.512Z,4.07
2022-07-28T17:22:36.249Z,4.25
2022-07-28T17:24:39.904Z,4.28
2022-07-28T17:29:11.872Z,4.00
2022-07-28T17:31:15.709Z,3.67
2022-07-28T17:33:19.619Z,3.60
2022-07-28T17:35:34.267Z,4.25
2022-07-28T17:37:38.982Z,3.97
2022-07-28T17:39:42.806Z,4.05
2022-07-28T17:41:47.917Z,3.80
2022-07-28T17:43:51.739Z,4.35
2022-07-28T17:45:56.522Z,4.10
2022-07-28T17:48:00.645Z,5.43
2022-07-28T17:50:04.940Z,4.45
2022-07-28T17:52:09.168Z,4.65
2022-07-28T17:54:15.955Z,4.80
2022-07-28T17:56:20.515Z,4.78
2022-07-28T17:58:32.676Z,4.90
2022-07-28T18:00:36.765Z,4.75
2022-07-28T18:02:40.816Z,5.03
2022-07-28T18:04:45.083Z,4.68
2022-07-28T18:06:48.954Z,4.30
2022-07-28T18:08:52.482Z,4.45
2022-07-28T18:10:56.425Z,4.47
2022-07-28T18:13:00.567Z,5.00
2022-07-28T18:15:06.556Z,4.78
2022-07-28T18:17:10.771Z,4.50
2022-07-28T18:19:14.935Z,4.60
2022-07-28T18:21:18.574Z,5.05
2022-07-28T18:23:23.617Z,5.03
2022-07-28T18:25:29.555Z,4.72
2022-07-28T18:27:33.330Z,4.78
2022-07-28T18:29:38.906Z,5.22
2022-07-28T18:31:46.857Z,4.85
2022-07-28T18:33:51.031Z,4.80
2022-07-28T18:35:54.984Z,4.72
2022-07-28T18:37:59.680Z,4.75
2022-07-28T18:40:04.536Z,4.70
2022-07-28T18:42:08.557Z,11.38
2022-07-28T18:44:12.722Z,4.72
2022-07-28T18:46:17.298Z,4.85
2022-07-28T18:48:25.714Z,5.30
2022-07-28T18:50:31.486Z,4.88
2022-07-28T18:52:36.403Z,5.22
2022-07-28T18:54:40.526Z,4.10
2022-07-28T18:56:44.691Z,4.40
2022-07-28T18:58:51.924Z,4.65
2022-07-28T19:00:56.295Z,6.95
2022-07-28T19:03:00.482Z,8.80
2022-07-28T19:05:06.686Z,5.22
2022-07-28T19:07:10.952Z,4.78
2022-07-28T19:09:14.898Z,3.92
2022-07-28T19:11:20.025Z,4.18
2022-07-28T19:13:24.377Z,4.10
2022-07-28T19:15:28.875Z,4.53
2022-07-28T19:17:34.154Z,4.10
2022-07-28T19:19:38.469Z,4.60
2022-07-28T19:21:44.532Z,4.13
2022-07-28T19:23:49.384Z,3.97
2022-07-28T19:25:53.590Z,4.55
2022-07-28T19:27:57.984Z,5.57
2022-07-28T19:30:02.529Z,5.20
2022-07-28T19:32:08.518Z,4.35
2022-07-28T19:34:13.312Z,4.00
2022-07-28T19:36:17.857Z,4.50
2022-07-28T19:38:23.359Z,4.30
2022-07-28T19:40:29.443Z,5.45
2022-07-28T19:42:35.368Z,4.63
2022-07-28T19:44:39.595Z,4.50
2022-07-28T19:46:45.040Z,4.72
2022-07-28T19:48:49.289Z,5.07
2022-07-28T19:50:53.707Z,5.22
2022-07-28T19:52:58.462Z,6.55
2022-07-28T19:55:04.240Z,5.35
2022-07-28T19:57:12.379Z,4.63
2022-07-28T19:59:18.686Z,5.28
2022-07-28T20:01:22.930Z,5.72
2022-07-28T20:04:01.415Z,5.03
2022-07-28T20:05:51.109Z,5.70
2022-07-28T20:07:55.300Z,4.47
2022-07-28T20:09:59.560Z,4.35
2022-07-28T20:12:05.324Z,5.50
2022-07-28T20:14:11.972Z,5.70
2022-07-28T20:16:16.218Z,5.35
2022-07-28T20:18:20.464Z,4.80
2022-07-28T20:20:24.604Z,4.60
2022-07-28T20:22:28.775Z,4.95
2022-07-28T20:24:33.119Z,4.95
2022-07-28T20:26:37.575Z,5.20
2022-07-28T20:28:44.283Z,5.32
2022-07-28T20:30:49.590Z,5.32
2022-07-28T20:32:54.044Z,4.65
2022-07-28T20:34:58.459Z,5.10
2022-07-28T20:37:02.570Z,5.22
2022-07-28T20:39:34.286Z,4.97
2022-07-28T20:41:35.550Z,4.93
2022-07-28T20:43:39.808Z,5.50
2022-07-28T20:45:46.496Z,5.63
2022-07-28T20:47:50.516Z,5.28
2022-07-28T20:49:55.535Z,5.50
2022-07-28T20:52:00.384Z,4.70
2022-07-28T20:54:04.021Z,5.35
2022-07-28T20:56:08.547Z,5.30
2022-07-28T20:58:13.462Z,5.53
2022-07-28T21:00:19.301Z,4.80
2022-07-28T21:02:25.825Z,5.47
2022-07-28T21:04:29.782Z,5.45
2022-07-28T21:06:34.797Z,6.07
2022-07-28T21:08:41.766Z,6.00
2022-07-28T21:10:46.148Z,5.38
2022-07-28T21:12:50.013Z,5.97
2022-07-28T21:14:54.631Z,6.78
2022-07-28T21:16:58.544Z,5.35
2022-07-28T21:19:06.163Z,5.20
2022-07-28T21:21:10.422Z,5.20
2022-07-28T21:23:14.819Z,5.50
2022-07-28T21:25:18.844Z,5.53
2022-07-28T21:27:22.777Z,5.75
2022-07-28T21:31:30.751Z,5.65
2022-07-28T21:33:34.882Z,5.95
2022-07-28T21:35:43.694Z,6.00
2022-07-28T21:37:48.026Z,5.50
2022-07-28T21:39:52.233Z,5.90
2022-07-28T21:41:56.133Z,5.20
2022-07-28T21:44:04.172Z,5.55
2022-07-28T21:46:08.392Z,5.90
2022-07-28T21:48:12.445Z,5.93
2022-07-28T21:50:16.920Z,6.00
2022-07-28T21:52:22.968Z,5.50
2022-07-28T21:54:27.055Z,5.65
2022-07-28T21:56:31.836Z,6.22
2022-07-28T21:58:36.476Z,7.28
2022-07-28T22:00:40.552Z,5.57
2022-07-28T22:02:44.644Z,5.75
2022-07-28T22:04:48.605Z,5.90
2022-07-28T22:06:52.556Z,6.47
2022-07-28T22:08:58.118Z,6.25
2022-07-28T22:11:02.960Z,6.55
2022-07-28T22:13:07.198Z,6.13
2022-07-28T22:15:11.827Z,6.47
2022-07-28T22:17:16.203Z,6.07
2022-07-28T22:19:20.763Z,6.70
2022-07-28T22:21:25.103Z,6.03
2022-07-28T22:23:30.222Z,6.60
2022-07-28T22:25:36.776Z,6.57
2022-07-28T22:27:41.013Z,6.95
2022-07-28T22:29:50.147Z,6.50
2022-07-28T22:31:59.355Z,6.60
2022-07-28T22:34:04.236Z,6.82
2022-07-28T22:36:09.548Z,7.03
2022-07-28T22:38:14.015Z,6.35
2022-07-28T22:40:19.098Z,6.28
2022-07-28T22:42:26.418Z,5.95
2022-07-28T22:44:31.479Z,6.32
2022-07-28T22:46:38.339Z,6.57
2022-07-28T22:48:42.560Z,6.13
2022-07-28T22:50:47.466Z,6.53
2022-07-28T22:52:51.458Z,6.25
2022-07-28T22:54:56.998Z,6.97
2022-07-28T22:57:00.825Z,6.10
2022-07-28T22:59:06.775Z,7.25
2022-07-28T23:01:10.450Z,5.95
2022-07-28T23:03:15.901Z,5.80
2022-07-28T23:05:20.750Z,5.25
2022-07-28T23:07:51.068Z,5.45
2022-07-28T23:09:48.322Z,5.85
2022-07-28T23:11:55.962Z,5.18
2022-07-28T23:14:00.059Z,4.90
2022-07-28T23:16:05.749Z,5.00
2022-07-28T23:18:09.382Z,4.70
2022-07-28T23:20:14.021Z,4.97
2022-07-28T23:22:19.803Z,4.82
2022-07-28T23:24:23.759Z,5.13
2022-07-28T23:26:27.636Z,4.57
2022-07-28T23:28:31.946Z,4.82
2022-07-28T23:30:36.590Z,5.03
2022-07-28T23:32:41.862Z,5.63
2022-07-28T23:34:46.346Z,4.97
2022-07-28T23:36:49.975Z,4.97
2022-07-28T23:38:54.157Z,4.72
2022-07-28T23:40:57.826Z,4.63
2022-07-28T23:43:01.872Z,4.72
2022-07-28T23:45:06.346Z,4.85
2022-07-28T23:47:10.135Z,4.32
2022-07-28T23:49:15.528Z,4.15
2022-07-28T23:51:19.395Z,4.03
2022-07-28T23:53:23.274Z,4.47
2022-07-28T23:55:26.942Z,4.20
2022-07-28T23:57:31.551Z,3.83
2022-07-28T23:59:35.618Z,3.70
